Time;durP1;ratioP1;P1;durP2;ratioP2;P2;SDS_P1;SDS_P2;PMS_P1;PMS_P2;Temp;Humidity;BMP_temperature;BMP_pressure;BME280_temperature;BME280_humidity;BME280_pressure;Samples;Min_cycle;Max_cycle;Signal;HPM_P1;HPM_P2
2022/11/01 00:01:24;;;;;;;6.00;5.40;;;22.40;99.90;;;;;;5034502;28;20461;-39
2022/11/01 00:03:51;;;;;;;6.77;6.03;;;22.40;99.90;;;;;;5029558;28;20450;-40
2022/11/01 00:06:18;;;;;;;7.10;6.40;;;22.40;99.90;;;;;;5044693;28;20457;-42
2022/11/01 00:08:45;;;;;;;6.60;6.00;;;22.40;99.90;;;;;;5037897;28;20458;-41
2022/11/01 00:11:15;;;;;;;7.30;6.70;;;22.40;99.90;;;;;;5037170;28;20464;-41
2022/11/01 00:13:44;;;;;;;6.17;5.63;;;22.40;99.90;;;;;;5036480;28;20462;-41
2022/11/01 00:16:10;;;;;;;6.07;5.47;;;22.40;99.90;;;;;;5032247;28;20528;-41
2022/11/01 00:18:37;;;;;;;6.17;5.57;;;22.40;99.90;;;;;;5032896;28;20462;-39
2022/11/01 00:21:04;;;;;;;6.43;5.83;;;22.40;99.90;;;;;;5030395;28;20459;-42
2022/11/01 00:23:31;;;;;;;8.27;6.07;;;22.30;99.90;;;;;;5038674;28;20511;-41
2022/11/01 00:25:59;;;;;;;7.17;6.53;;;22.30;99.90;;;;;;5035281;28;20822;-39
2022/11/01 00:28:28;;;;;;;7.40;6.70;;;22.30;99.90;;;;;;5038976;28;20541;-42
2022/11/01 00:30:56;;;;;;;6.30;5.53;;;22.30;99.90;;;;;;5027902;28;20536;-40
2022/11/01 00:33:23;;;;;;;8.30;6.30;;;22.30;99.90;;;;;;5034026;28;20492;-41
2022/11/01 00:35:50;;;;;;;6.87;6.17;;;22.30;99.90;;;;;;5042157;28;20525;-40
2022/11/01 00:38:17;;;;;;;7.07;6.47;;;22.20;99.90;;;;;;5032099;28;20458;-39
2022/11/01 00:40:45;;;;;;;6.20;5.70;;;22.20;99.90;;;;;;4995875;28;1077754;-40
2022/11/01 00:43:12;;;;;;;6.37;5.77;;;22.20;99.90;;;;;;5033491;28;20225;-42
2022/11/01 00:45:43;;;;;;;6.00;5.50;;;22.20;99.90;;;;;;5020625;28;20454;-42
2022/11/01 00:48:10;;;;;;;5.67;5.23;;;22.20;99.90;;;;;;5032975;28;21177;-42
2022/11/01 00:50:37;;;;;;;7.03;6.33;;;22.20;99.90;;;;;;5034903;28;20462;-41
2022/11/01 00:53:04;;;;;;;7.83;5.90;;;22.20;99.90;;;;;;5031398;28;20799;-39
2022/11/01 00:55:31;;;;;;;7.67;6.93;;;22.20;99.90;;;;;;5037519;28;20465;-41
2022/11/01 00:57:57;;;;;;;5.97;5.37;;;22.20;99.90;;;;;;5042670;28;20520;-41
2022/11/01 01:00:24;;;;;;;5.80;5.30;;;22.20;99.90;;;;;;5034681;28;20457;-39
2022/11/01 01:02:52;;;;;;;5.60;5.10;;;22.10;99.90;;;;;;5038397;28;20497;-41
2022/11/01 01:05:19;;;;;;;6.50;5.90;;;22.10;99.90;;;;;;5034805;28;20449;-41
2022/11/01 01:07:46;;;;;;;9.20;6.37;;;22.10;99.90;;;;;;5027969;28;20458;-39
2022/11/01 01:10:13;;;;;;;6.13;5.50;;;22.10;99.90;;;;;;5034553;28;20445;-39
2022/11/01 01:12:40;;;;;;;5.63;5.13;;;22.10;99.90;;;;;;5031878;28;20485;-39
2022/11/01 01:15:08;;;;;;;5.00;4.60;;;22.10;99.90;;;;;;5029228;28;20466;-42
2022/11/01 01:17:35;;;;;;;7.27;4.60;;;22.10;99.90;;;;;;5032307;28;20480;-41
2022/11/01 01:20:04;;;;;;;5.63;5.10;;;22.00;99.90;;;;;;5038925;28;20462;-39
2022/11/01 01:22:31;;;;;;;5.23;4.77;;;22.00;99.90;;;;;;5035352;28;21248;-40
2022/11/01 01:24:58;;;;;;;5.83;5.30;;;22.00;99.90;;;;;;5037597;28;20470;-41
2022/11/01 01:27:24;;;;;;;6.00;5.37;;;22.00;99.90;;;;;;5035166;28;20456;-40
2022/11/01 01:29:51;;;;;;;5.43;4.90;;;21.90;99.90;;;;;;5037093;28;20473;-41
2022/11/01 01:32:21;;;;;;;5.60;5.10;;;21.90;99.90;;;;;;5039794;28;20465;-40
2022/11/01 01:34:48;;;;;;;6.90;6.33;;;21.90;99.90;;;;;;5034061;28;20469;-41
2022/11/01 01:37:16;;;;;;;6.83;5.67;;;21.90;99.90;;;;;;5034504;28;20458;-41
2022/11/01 01:39:43;;;;;;;5.33;4.87;;;21.90;99.90;;;;;;5038821;28;20583;-41
2022/11/01 01:42:17;;;;;;;5.63;5.23;;;21.90;99.90;;;;;;5035293;28;20517;-40
2022/11/01 01:45:20;;;;;;;5.70;5.20;;;21.90;99.90;;;;;;5042236;28;20544;-40
2022/11/01 01:47:50;;;;;;;5.70;4.43;;;21.90;99.90;;;;;;5036955;28;21153;-40
2022/11/01 01:50:22;;;;;;;6.20;5.60;;;21.90;99.90;;;;;;5036645;28;20490;-43
2022/11/01 01:52:54;;;;;;;5.30;4.73;;;22.00;99.90;;;;;;5033624;28;20981;-39
2022/11/01 01:55:25;;;;;;;5.53;4.93;;;21.90;99.90;;;;;;5040399;28;20973;-38
2022/11/01 01:57:54;;;;;;;5.97;5.47;;;21.90;99.90;;;;;;5032030;28;20450;-42
2022/11/01 02:00:21;;;;;;;5.57;5.07;;;21.90;99.90;;;;;;5041696;28;20474;-39
2022/11/01 02:02:48;;;;;;;5.37;4.97;;;21.90;99.90;;;;;;5039207;28;20570;-41
2022/11/01 02:05:21;;;;;;;5.07;4.63;;;21.90;99.90;;;;;;5035721;28;20455;-42
2022/11/01 02:07:50;;;;;;;5.47;5.07;;;21.90;99.90;;;;;;5031546;28;20453;-41
2022/11/01 02:10:17;;;;;;;5.53;5.03;;;21.90;99.90;;;;;;5031968;28;20462;-41
2022/11/01 02:12:46;;;;;;;5.50;5.10;;;21.90;99.90;;;;;;5037414;28;20469;-41
2022/11/01 02:15:13;;;;;;;6.20;5.40;;;21.90;99.90;;;;;;5033477;28;20464;-41
2022/11/01 02:17:48;;;;;;;5.93;5.07;;;21.90;99.90;;;;;;5035181;28;20548;-40
2022/11/01 02:20:38;;;;;;;5.27;4.77;;;21.80;99.90;;;;;;5036684;28;20967;-41
2022/11/01 02:23:42;;;;;;;6.17;5.60;;;21.80;99.90;;;;;;5035466;28;20493;-39
2022/11/01 02:26:34;;;;;;;5.23;4.70;;;21.80;99.90;;;;;;5043912;28;20466;-38
2022/11/01 02:29:13;;;;;;;6.30;5.27;;;21.80;99.90;;;;;;5025976;28;20450;-37
2022/11/01 02:31:58;;;;;;;4.80;4.50;;;21.80;99.90;;;;;;5029256;28;20465;-38
2022/11/01 02:34:30;;;;;;;5.27;4.80;;;21.80;99.90;;;;;;5039253;28;20977;-39
2022/11/01 02:37:01;;;;;;;6.10;5.60;;;21.80;99.90;;;;;;5035029;28;20450;-41
2022/11/01 02:39:32;;;;;;;5.27;4.80;;;21.80;99.90;;;;;;5038905;28;20482;-39
2022/11/01 02:42:05;;;;;;;5.80;5.30;;;21.80;99.90;;;;;;5038875;28;20462;-41
2022/11/01 02:44:35;;;;;;;5.03;4.63;;;21.80;99.90;;;;;;5035828;28;20490;-38
2022/11/01 02:47:05;;;;;;;5.30;4.80;;;21.80;99.90;;;;;;5032025;28;20455;-39
2022/11/01 02:49:36;;;;;;;4.90;4.50;;;21.80;99.90;;;;;;5040310;28;20542;-41
2022/11/01 02:52:05;;;;;;;4.83;4.43;;;21.80;99.90;;;;;;5031322;28;20466;-42
2022/11/01 02:54:34;;;;;;;5.90;5.50;;;21.70;99.90;;;;;;5050126;28;20911;-40
2022/11/01 02:57:07;;;;;;;5.70;5.20;;;21.70;99.90;;;;;;5032487;28;20463;-42
2022/11/01 02:59:42;;;;;;;5.73;5.13;;;21.70;99.90;;;;;;5033938;28;20523;-40
2022/11/01 03:02:16;;;;;;;5.63;5.13;;;21.70;99.90;;;;;;5034873;28;20458;-39
2022/11/01 03:04:43;;;;;;;5.37;4.97;;;21.70;99.90;;;;;;5034708;28;20483;-40
2022/11/01 03:07:13;;;;;;;4.90;4.50;;;21.70;99.90;;;;;;5039000;28;20454;-40
2022/11/01 03:09:40;;;;;;;5.35;4.90;;;21.70;99.90;;;;;;5033922;28;20478;-39
2022/11/01 03:12:13;;;;;;;5.10;4.70;;;21.70;99.90;;;;;;5036501;28;20195;-41
2022/11/01 03:14:48;;;;;;;5.10;4.70;;;21.70;99.90;;;;;;5040121;28;20473;-38
2022/11/01 03:17:25;;;;;;;5.07;4.45;;;21.70;99.90;;;;;;5036772;28;20473;-39
2022/11/01 03:19:56;;;;;;;5.00;4.60;;;21.60;99.90;;;;;;5043655;28;20199;-39
2022/11/01 03:22:28;;;;;;;4.80;4.40;;;21.60;99.90;;;;;;5032195;28;20956;-39
2022/11/01 03:25:36;;;;;;;5.50;5.00;;;21.60;99.90;;;;;;5035076;28;20598;-42
2022/11/01 03:27:54;;;;;;;5.57;4.93;;;21.60;99.90;;;;;;5037536;28;20462;-39
2022/11/01 03:30:22;;;;;;;4.40;4.00;;;21.60;99.90;;;;;;5036125;28;20473;-39
2022/11/01 03:32:54;;;;;;;5.23;4.73;;;21.60;99.90;;;;;;5041561;28;20458;-40
2022/11/01 03:35:24;;;;;;;4.97;4.57;;;21.60;99.90;;;;;;5041282;28;20464;-42
2022/11/01 03:37:54;;;;;;;5.50;5.10;;;21.60;99.90;;;;;;5029944;28;20200;-38
2022/11/01 03:40:23;;;;;;;5.30;4.80;;;21.60;99.90;;;;;;5042023;28;20507;-38
2022/11/01 03:42:52;;;;;;;5.50;5.00;;;21.50;99.90;;;;;;5035909;28;20454;-39
2022/11/01 03:45:23;;;;;;;6.10;5.55;;;21.50;99.90;;;;;;5030183;28;20465;-39
2022/11/01 03:47:51;;;;;;;5.03;4.63;;;21.50;99.90;;;;;;5038753;28;20210;-41
2022/11/01 03:50:20;;;;;;;5.40;4.90;;;21.50;99.90;;;;;;5033818;28;20470;-40
2022/11/01 03:52:47;;;;;;;5.40;5.00;;;21.50;99.90;;;;;;5036824;28;20267;-38
2022/11/01 03:55:18;;;;;;;5.70;5.00;;;21.50;99.90;;;;;;5040028;28;20470;-41
2022/11/01 03:57:45;;;;;;;4.70;4.22;;;21.50;99.90;;;;;;5043892;28;20992;-41
2022/11/01 04:00:15;;;;;;;5.57;4.90;;;21.50;99.90;;;;;;5033293;28;20223;-40
2022/11/01 04:02:41;;;;;;;5.00;4.60;;;21.50;99.90;;;;;;5043218;28;20276;-39
2022/11/01 04:05:10;;;;;;;4.77;4.27;;;21.50;99.90;;;;;;5034295;28;20458;-38
2022/11/01 04:07:37;;;;;;;5.65;5.25;;;21.50;99.90;;;;;;5042698;28;20522;-38
2022/11/01 04:10:04;;;;;;;4.77;4.37;;;21.50;99.90;;;;;;5032078;28;20198;-40
2022/11/01 04:12:30;;;;;;;5.05;4.50;;;21.40;99.90;;;;;;5029715;28;20466;-40
2022/11/01 04:20:32;;;;;;;5.97;5.37;;;21.40;99.90;;;;;;5039568;28;20988;-38
2022/11/01 04:22:59;;;;;;;5.33;4.93;;;21.40;99.90;;;;;;5043797;28;20477;-39
2022/11/01 04:25:26;;;;;;;4.87;4.10;;;21.40;99.90;;;;;;5033978;28;20470;-38
2022/11/01 04:27:55;;;;;;;4.53;4.13;;;21.40;99.90;;;;;;5042332;28;20796;-41
2022/11/01 04:30:22;;;;;;;5.97;4.93;;;21.40;99.90;;;;;;5026998;28;20459;-39
2022/11/01 04:32:48;;;;;;;4.83;4.53;;;21.40;99.90;;;;;;5033018;28;20453;-40
2022/11/01 04:35:15;;;;;;;5.03;4.63;;;21.40;99.90;;;;;;5033005;28;20466;-38
2022/11/01 04:37:44;;;;;;;4.93;4.53;;;21.40;99.90;;;;;;5029922;28;20855;-41
2022/11/01 04:40:12;;;;;;;4.47;4.07;;;21.40;99.90;;;;;;5031799;28;20461;-41
2022/11/01 04:42:39;;;;;;;5.27;4.77;;;21.30;99.90;;;;;;5038020;28;20463;-39
2022/11/01 04:45:09;;;;;;;5.57;5.07;;;21.30;99.90;;;;;;5032384;28;20482;-39
2022/11/01 04:47:35;;;;;;;4.37;3.97;;;21.30;99.90;;;;;;5039091;28;20277;-39
2022/11/01 04:50:02;;;;;;;4.90;4.47;;;21.30;99.90;;;;;;5038157;28;20512;-39
2022/11/01 04:52:29;;;;;;;5.20;4.57;;;21.30;99.90;;;;;;5039973;28;20473;-38
2022/11/01 04:54:57;;;;;;;4.50;4.10;;;21.30;99.90;;;;;;5045794;28;20902;-38
2022/11/01 04:57:23;;;;;;;5.13;4.70;;;21.30;99.90;;;;;;5039668;28;20457;-38
2022/11/01 04:59:50;;;;;;;4.83;4.33;;;21.30;99.90;;;;;;5033665;28;20650;-38
2022/11/01 05:02:17;;;;;;;4.82;4.53;;;21.30;99.90;;;;;;5040176;28;20456;-40
2022/11/01 05:04:44;;;;;;;4.40;4.10;;;21.30;99.90;;;;;;5038624;28;20219;-38
2022/11/01 05:07:11;;;;;;;4.60;4.20;;;21.30;99.90;;;;;;5032664;28;20659;-42
2022/11/01 05:09:38;;;;;;;4.35;4.00;;;21.20;99.90;;;;;;5030037;28;20207;-39
2022/11/01 05:12:06;;;;;;;5.10;4.60;;;21.20;99.90;;;;;;5038201;28;20266;-38
2022/11/01 05:14:33;;;;;;;5.63;4.57;;;21.20;99.90;;;;;;5034603;28;20671;-41
2022/11/01 05:17:00;;;;;;;5.20;4.77;;;21.20;99.90;;;;;;5031740;28;21007;-37
2022/11/01 05:19:27;;;;;;;4.93;4.47;;;21.20;99.90;;;;;;5035660;28;20461;-38
2022/11/01 05:21:53;;;;;;;5.15;4.75;;;21.20;99.90;;;;;;5034053;28;20205;-39
2022/11/01 05:24:20;;;;;;;5.03;4.63;;;21.20;99.90;;;;;;5048022;28;20215;-39
2022/11/01 05:26:49;;;;;;;5.00;4.60;;;21.20;99.90;;;;;;5036303;28;20364;-38
2022/11/01 05:29:17;;;;;;;4.45;4.05;;;21.20;99.90;;;;;;5041950;28;20199;-39
2022/11/01 05:31:43;;;;;;;5.10;4.70;;;21.20;99.90;;;;;;5038920;28;20214;-40
2022/11/01 05:34:10;;;;;;;4.32;3.92;;;21.20;99.90;;;;;;5037596;28;20563;-39
2022/11/01 05:36:37;;;;;;;4.53;4.13;;;21.20;99.90;;;;;;5039754;28;20238;-41
2022/11/01 05:39:04;;;;;;;5.82;5.20;;;21.20;99.90;;;;;;5035622;28;20453;-39
2022/11/01 05:41:30;;;;;;;4.80;4.40;;;21.10;99.90;;;;;;5038377;28;20208;-38
2022/11/01 05:43:57;;;;;;;5.75;4.13;;;21.10;99.90;;;;;;5038754;28;20219;-38
2022/11/01 05:46:25;;;;;;;5.15;4.65;;;21.10;99.90;;;;;;5041525;28;20199;-40
2022/11/01 05:48:52;;;;;;;4.93;4.55;;;21.10;99.90;;;;;;5045012;28;20195;-39
2022/11/01 05:51:19;;;;;;;4.40;4.00;;;21.10;99.90;;;;;;5040391;28;20191;-39
2022/11/01 05:53:48;;;;;;;5.40;4.93;;;21.10;99.90;;;;;;5038026;28;20195;-40
2022/11/01 05:56:14;;;;;;;4.30;4.00;;;21.10;99.90;;;;;;5042047;28;20575;-36
2022/11/01 05:58:41;;;;;;;3.90;3.60;;;21.40;99.90;;;;;;5037690;28;20199;-39
2022/11/01 06:01:08;;;;;;;4.83;4.40;;;21.70;99.90;;;;;;5032976;28;20461;-41
2022/11/01 06:03:37;;;;;;;4.40;4.00;;;21.90;99.90;;;;;;5049695;28;20477;-37
2022/11/01 06:06:04;;;;;;;4.30;4.00;;;22.00;99.90;;;;;;5038078;28;20473;-35
2022/11/01 06:08:31;;;;;;;4.37;3.97;;;22.20;99.90;;;;;;5032573;28;20458;-41
2022/11/01 06:11:02;;;;;;;4.90;4.53;;;22.30;99.90;;;;;;5039884;28;20458;-38
2022/11/01 06:13:29;;;;;;;4.23;3.90;;;22.30;99.90;;;;;;5040994;28;20490;-40
2022/11/01 06:15:58;;;;;;;4.27;3.97;;;22.30;99.90;;;;;;5042001;28;20458;-41
2022/11/01 06:18:25;;;;;;;4.20;3.90;;;22.40;99.90;;;;;;5035089;28;20459;-39
2022/11/01 06:20:53;;;;;;;4.60;4.20;;;22.40;99.90;;;;;;5042394;28;20465;-43
2022/11/01 06:23:20;;;;;;;4.30;3.90;;;22.50;99.90;;;;;;5047926;28;20457;-41
2022/11/01 06:25:47;;;;;;;3.70;3.40;;;22.50;99.90;;;;;;5045271;28;20864;-41
2022/11/01 06:28:14;;;;;;;3.80;3.50;;;22.50;99.90;;;;;;5037331;28;20466;-38
2022/11/01 06:30:42;;;;;;;4.30;4.00;;;22.50;99.90;;;;;;5032218;28;20481;-42
2022/11/01 06:33:09;;;;;;;4.20;3.87;;;22.50;99.90;;;;;;5035080;28;20828;-38
2022/11/01 06:35:36;;;;;;;4.47;4.00;;;22.40;99.90;;;;;;5034435;28;20539;-36
2022/11/01 06:38:06;;;;;;;4.23;3.90;;;22.40;99.90;;;;;;5034473;28;20485;-40
2022/11/01 06:40:33;;;;;;;3.97;3.67;;;22.40;99.90;;;;;;5036440;28;20527;-38
2022/11/01 06:43:01;;;;;;;3.83;3.40;;;22.40;99.90;;;;;;5035660;28;20462;-39
2022/11/01 06:45:28;;;;;;;4.97;4.57;;;22.30;99.90;;;;;;5044210;28;20905;-38
2022/11/01 06:47:55;;;;;;;3.93;3.63;;;22.40;99.90;;;;;;5040337;28;20453;-39
2022/11/01 06:50:22;;;;;;;4.63;3.80;;;22.30;99.90;;;;;;5033834;28;20965;-40
2022/11/01 06:52:49;;;;;;;3.30;3.00;;;22.30;99.90;;;;;;5036567;28;20465;-40
2022/11/01 06:55:17;;;;;;;3.87;3.67;;;22.30;99.90;;;;;;5035184;28;20461;-38
2022/11/01 06:57:53;;;;;;;3.93;3.60;;;22.30;99.90;;;;;;5043105;28;20508;-38
2022/11/01 07:00:20;;;;;;;5.13;4.73;;;22.30;99.90;;;;;;5035188;28;20462;-36
2022/11/01 07:02:47;;;;;;;3.57;3.27;;;22.30;99.90;;;;;;5033554;28;21012;-35
2022/11/01 07:05:13;;;;;;;3.23;3.03;;;22.30;99.90;;;;;;5036835;28;20973;-36
2022/11/01 07:07:41;;;;;;;3.87;3.57;;;22.30;99.90;;;;;;5036559;28;20459;-37
2022/11/01 07:10:08;;;;;;;4.57;4.20;;;22.20;99.90;;;;;;5035780;28;20956;-38
2022/11/01 07:12:36;;;;;;;4.27;3.97;;;22.20;99.90;;;;;;5038439;28;20482;-36
2022/11/01 07:15:03;;;;;;;3.80;3.40;;;22.20;99.90;;;;;;5036170;28;21016;-35
2022/11/01 07:17:30;;;;;;;4.73;4.33;;;22.20;99.90;;;;;;5048359;28;20481;-36
2022/11/01 07:19:57;;;;;;;4.07;3.83;;;22.30;99.90;;;;;;5033823;28;20458;-37
2022/11/01 07:22:23;;;;;;;4.23;3.80;;;22.20;99.90;;;;;;5034457;28;20459;-38
2022/11/01 07:24:50;;;;;;;4.40;4.00;;;22.20;99.90;;;;;;5031507;28;20482;-39
2022/11/01 07:27:17;;;;;;;4.20;3.87;;;22.20;99.90;;;;;;5029441;28;20488;-37
2022/11/01 07:29:45;;;;;;;3.90;3.60;;;22.20;99.90;;;;;;5032578;28;20969;-36
2022/11/01 07:32:11;;;;;;;3.83;3.53;;;22.20;99.90;;;;;;5038727;28;20462;-38
2022/11/01 07:34:38;;;;;;;4.70;4.20;;;22.30;99.90;;;;;;5040739;28;20849;-36
2022/11/01 07:37:05;;;;;;;4.10;3.80;;;22.30;99.90;;;;;;5045204;28;20493;-35
2022/11/01 07:39:31;;;;;;;4.17;3.77;;;22.40;99.90;;;;;;5028484;28;20974;-38
2022/11/01 07:41:58;;;;;;;4.73;4.30;;;22.30;99.90;;;;;;5035617;28;20465;-39
2022/11/01 07:44:25;;;;;;;3.80;3.50;;;22.40;99.90;;;;;;5036256;28;20482;-34
2022/11/01 07:46:53;;;;;;;5.00;4.00;;;22.40;99.90;;;;;;5033243;28;20881;-35
2022/11/01 07:49:20;;;;;;;4.07;3.77;;;22.40;99.90;;;;;;5037714;28;20489;-40
2022/11/01 07:51:46;;;;;;;3.50;3.20;;;22.40;99.90;;;;;;5036630;28;20464;-38
2022/11/01 07:54:13;;;;;;;5.00;4.60;;;22.40;99.90;;;;;;5028302;28;20554;-40
2022/11/01 07:56:40;;;;;;;3.90;3.60;;;22.40;99.90;;;;;;5033710;28;20458;-44
2022/11/01 07:59:08;;;;;;;4.00;3.70;;;22.40;99.90;;;;;;5042764;28;20513;-34
2022/11/01 08:01:35;;;;;;;4.77;4.30;;;22.50;99.90;;;;;;5034188;28;20458;-34
2022/11/01 08:04:03;;;;;;;3.90;3.60;;;22.50;99.90;;;;;;5039423;28;20458;-39
2022/11/01 08:06:29;;;;;;;3.60;3.30;;;22.50;99.90;;;;;;5037742;28;20446;-41
2022/11/01 08:08:56;;;;;;;3.83;3.40;;;22.50;99.90;;;;;;5031888;28;20465;-43
2022/11/01 08:11:23;;;;;;;3.83;3.53;;;22.50;99.90;;;;;;5034525;28;20454;-39
2022/11/01 08:13:49;;;;;;;4.10;3.70;;;22.60;99.90;;;;;;5032622;28;20869;-37
2022/11/01 08:16:17;;;;;;;4.40;4.00;;;22.60;99.90;;;;;;5039468;28;20486;-40
2022/11/01 08:18:43;;;;;;;4.20;3.80;;;22.60;99.90;;;;;;5041621;28;20512;-41
2022/11/01 08:21:17;;;;;;;4.10;3.70;;;22.60;99.90;;;;;;5031083;28;20458;-40
2022/11/01 08:23:44;;;;;;;4.60;4.20;;;22.70;99.90;;;;;;5035998;28;20990;-40
2022/11/01 08:26:11;;;;;;;6.97;3.70;;;22.70;99.90;;;;;;5039038;28;20485;-38
2022/11/01 08:28:38;;;;;;;4.37;4.07;;;22.80;99.90;;;;;;5030439;28;20530;-38
2022/11/01 08:31:06;;;;;;;4.37;3.97;;;22.80;99.90;;;;;;5032009;28;20460;-38
2022/11/01 08:33:33;;;;;;;2.93;2.70;;;22.80;99.90;;;;;;5037519;28;21006;-37
2022/11/01 08:36:00;;;;;;;5.00;4.60;;;22.80;99.90;;;;;;5036748;28;20466;-40
2022/11/01 08:38:28;;;;;;;3.13;2.90;;;22.80;99.90;;;;;;5043567;28;20462;-43
2022/11/01 08:40:55;;;;;;;5.17;3.97;;;22.90;99.90;;;;;;5032424;28;20463;-43
2022/11/01 08:43:22;;;;;;;4.00;3.70;;;22.90;99.90;;;;;;5032300;28;20447;-43
2022/11/01 08:45:49;;;;;;;6.13;3.87;;;22.90;99.90;;;;;;5046805;28;20485;-43
2022/11/01 08:48:16;;;;;;;4.07;3.67;;;22.90;99.90;;;;;;5032234;28;20454;-38
2022/11/01 08:50:42;;;;;;;4.00;3.60;;;22.90;99.90;;;;;;5037761;28;20458;-38
2022/11/01 08:53:11;;;;;;;3.90;3.60;;;23.00;99.90;;;;;;5035004;28;20472;-40
2022/11/01 08:55:40;;;;;;;3.50;3.20;;;23.00;99.90;;;;;;5037616;28;20462;-38
2022/11/01 08:58:08;;;;;;;3.83;3.53;;;23.00;99.90;;;;;;5039194;28;20456;-37
2022/11/01 09:00:35;;;;;;;3.97;2.90;;;23.00;99.90;;;;;;5046232;28;20457;-39
2022/11/01 09:03:02;;;;;;;3.30;2.80;;;23.10;99.90;;;;;;5038028;28;20522;-36
2022/11/01 09:05:30;;;;;;;3.53;3.23;;;23.10;99.90;;;;;;5041923;28;20841;-39
2022/11/01 09:07:57;;;;;;;3.97;3.57;;;23.10;99.90;;;;;;5033495;28;20473;-35
2022/11/01 09:10:24;;;;;;;6.67;3.67;;;23.10;99.90;;;;;;5038524;28;20446;-38
2022/11/01 09:12:52;;;;;;;4.27;3.87;;;23.10;99.90;;;;;;5036553;28;20454;-39
2022/11/01 09:15:19;;;;;;;4.43;3.20;;;23.10;99.90;;;;;;5039584;28;20819;-39
2022/11/01 09:17:46;;;;;;;3.77;3.00;;;23.10;99.90;;;;;;5036531;28;20478;-37
2022/11/01 09:20:13;;;;;;;3.77;3.47;;;23.10;99.90;;;;;;5033545;28;20516;-36
2022/11/01 09:22:40;;;;;;;3.60;3.13;;;23.10;99.90;;;;;;5045352;28;20449;-43
2022/11/01 09:25:08;;;;;;;4.90;3.20;;;23.10;99.90;;;;;;5042090;28;20468;-39
2022/11/01 09:27:35;;;;;;;4.53;2.80;;;23.10;99.90;;;;;;5033517;28;20459;-33
2022/11/01 09:30:03;;;;;;;3.93;3.63;;;23.10;99.90;;;;;;5033064;28;20458;-37
2022/11/01 09:32:30;;;;;;;3.93;3.37;;;23.10;99.90;;;;;;5037513;28;20508;-34
2022/11/01 09:34:57;;;;;;;3.70;2.97;;;23.10;99.90;;;;;;5039465;28;20829;-33
2022/11/01 09:37:24;;;;;;;3.40;3.10;;;23.20;99.90;;;;;;5033280;28;20484;-34
2022/11/01 09:39:50;;;;;;;3.40;3.10;;;23.20;99.90;;;;;;5038648;28;20465;-35
2022/11/01 09:42:23;;;;;;;3.27;2.97;;;23.20;99.90;;;;;;5037667;28;20453;-36
2022/11/01 09:44:53;;;;;;;3.90;3.33;;;23.20;99.90;;;;;;5033986;28;20474;-34
2022/11/01 09:47:23;;;;;;;3.77;2.63;;;23.20;99.90;;;;;;5031884;28;20461;-34
2022/11/01 09:49:56;;;;;;;2.83;2.53;;;23.20;99.90;;;;;;5032784;28;20463;-39
2022/11/01 09:52:25;;;;;;;4.13;2.90;;;23.20;99.90;;;;;;5038276;28;20458;-34
2022/11/01 09:54:52;;;;;;;4.70;3.10;;;23.20;99.90;;;;;;5033488;28;20462;-37
2022/11/01 09:57:25;;;;;;;3.00;2.80;;;23.20;99.90;;;;;;5034758;28;20458;-34
2022/11/01 10:00:02;;;;;;;2.80;1.97;;;23.20;99.90;;;;;;5041687;28;20809;-38
2022/11/01 10:03:08;;;;;;;10.73;2.50;;;23.20;99.90;;;;;;5036578;28;20460;-34
2022/11/01 10:05:48;;;;;;;9.30;3.07;;;23.20;99.90;;;;;;5018687;28;20486;-34
2022/11/01 10:08:24;;;;;;;7.70;2.53;;;23.20;99.90;;;;;;5029366;28;20829;-42
2022/11/01 10:11:05;;;;;;;7.40;2.77;;;23.20;99.90;;;;;;5036415;28;20986;-44
2022/11/01 10:13:43;;;;;;;2.53;2.33;;;23.20;99.90;;;;;;5042600;28;20461;-43
2022/11/01 10:16:18;;;;;;;9.17;2.50;;;23.20;99.90;;;;;;5031635;28;22657;-39
2022/11/01 10:18:55;;;;;;;4.17;2.00;;;23.20;99.90;;;;;;5039911;28;20481;-38
2022/11/01 10:21:26;;;;;;;4.37;1.97;;;23.20;99.90;;;;;;5036408;28;20466;-39
2022/11/01 10:23:53;;;;;;;5.30;2.30;;;23.20;99.90;;;;;;5037766;28;20461;-37
2022/11/01 10:26:25;;;;;;;4.83;2.80;;;23.30;99.90;;;;;;5035532;28;20488;-41
2022/11/01 10:28:57;;;;;;;3.47;2.07;;;23.30;99.90;;;;;;5034448;28;20856;-36
2022/11/01 10:31:26;;;;;;;5.43;2.10;;;23.30;99.90;;;;;;5038253;28;20458;-36
2022/11/01 10:33:58;;;;;;;5.60;2.83;;;23.30;99.90;;;;;;5032137;28;20462;-36
2022/11/01 10:36:32;;;;;;;3.27;2.37;;;23.30;99.90;;;;;;5033345;28;20477;-42
2022/11/01 10:39:06;;;;;;;2.30;1.67;;;23.30;99.90;;;;;;5035550;28;20462;-42
2022/11/01 10:41:41;;;;;;;2.60;2.00;;;23.30;99.90;;;;;;5042061;28;20462;-43
2022/11/01 10:44:14;;;;;;;2.60;2.20;;;23.30;99.90;;;;;;5040025;28;20453;-37
2022/11/01 10:46:45;;;;;;;3.47;1.73;;;23.30;99.90;;;;;;5032928;28;20490;-39
2022/11/01 10:49:20;;;;;;;3.47;2.20;;;23.30;99.90;;;;;;5048010;28;20477;-36
2022/11/01 10:51:51;;;;;;;3.10;2.40;;;23.30;99.90;;;;;;5028570;28;20483;-40
2022/11/01 10:54:22;;;;;;;2.33;1.80;;;23.40;99.90;;;;;;5033826;28;20466;-38
2022/11/01 10:56:51;;;;;;;3.23;1.80;;;23.30;99.90;;;;;;5036194;28;20458;-40
2022/11/01 10:59:21;;;;;;;1.97;1.77;;;23.30;99.90;;;;;;5035968;28;20454;-37
2022/11/01 11:01:51;;;;;;;2.13;1.90;;;23.30;99.90;;;;;;5035265;28;20462;-37
2022/11/01 11:04:22;;;;;;;2.97;1.80;;;23.40;99.90;;;;;;5045267;28;20465;-35
2022/11/01 11:06:51;;;;;;;3.33;2.20;;;23.30;99.90;;;;;;5033794;28;20502;-39
2022/11/01 11:09:24;;;;;;;6.30;2.33;;;23.30;99.90;;;;;;5034019;28;20468;-36
2022/11/01 11:11:53;;;;;;;3.73;2.27;;;23.30;99.90;;;;;;5039670;28;20470;-38
2022/11/01 11:14:20;;;;;;;4.33;1.50;;;23.40;99.90;;;;;;5037456;28;20501;-41
2022/11/01 11:16:51;;;;;;;3.63;2.10;;;23.30;99.90;;;;;;5034032;28;20478;-40
2022/11/01 11:19:24;;;;;;;2.40;1.80;;;23.40;99.90;;;;;;5031148;28;20443;-44
2022/11/01 11:21:53;;;;;;;1.70;1.50;;;23.40;99.90;;;;;;5035695;28;20869;-37
2022/11/01 11:24:22;;;;;;;2.73;2.03;;;23.40;99.90;;;;;;5036548;28;20473;-36
2022/11/01 11:26:51;;;;;;;3.30;2.37;;;23.40;99.90;;;;;;5034206;28;20722;-40
2022/11/01 11:29:32;;;;;;;3.30;1.53;;;23.40;99.90;;;;;;5043444;28;20461;-37
2022/11/01 11:32:00;;;;;;;4.20;1.83;;;23.40;99.90;;;;;;5039112;28;20968;-37
2022/11/01 11:34:30;;;;;;;3.20;2.00;;;23.40;99.90;;;;;;5039868;28;20472;-36
2022/11/01 11:36:59;;;;;;;4.37;2.00;;;23.40;99.90;;;;;;5029113;28;20559;-36
2022/11/01 11:39:28;;;;;;;2.43;1.57;;;23.40;99.90;;;;;;5033400;28;20458;-40
2022/11/01 11:42:10;;;;;;;3.87;1.80;;;23.40;99.90;;;;;;5033870;28;20917;-40
2022/11/01 11:44:43;;;;;;;3.13;1.90;;;23.30;99.90;;;;;;5034750;28;20945;-38
2022/11/01 11:47:21;;;;;;;2.73;1.80;;;23.40;99.90;;;;;;5041267;28;20875;-43
2022/11/01 11:49:49;;;;;;;2.17;1.67;;;23.30;99.90;;;;;;5038730;28;20470;-39
2022/11/01 11:52:20;;;;;;;2.17;1.60;;;23.30;99.90;;;;;;5036805;28;20465;-40
2022/11/01 11:54:47;;;;;;;4.50;2.00;;;23.40;99.90;;;;;;5030576;28;20565;-36
2022/11/01 11:57:19;;;;;;;3.70;1.90;;;23.30;99.90;;;;;;5032948;28;21164;-39
2022/11/01 11:59:51;;;;;;;2.33;1.87;;;23.30;99.90;;;;;;5030195;28;20465;-42
2022/11/01 12:02:21;;;;;;;4.23;1.97;;;23.30;99.90;;;;;;5032200;28;21091;-37
2022/11/01 12:04:55;;;;;;;1.90;1.67;;;23.30;99.90;;;;;;5030333;28;20906;-36
2022/11/01 12:07:26;;;;;;;3.90;2.00;;;23.30;99.90;;;;;;5042198;28;20519;-36
2022/11/01 12:09:54;;;;;;;4.30;2.37;;;23.30;99.90;;;;;;5036821;28;20813;-38
2022/11/01 12:12:26;;;;;;;9.73;2.10;;;23.30;99.90;;;;;;5037972;28;20456;-45
2022/11/01 12:14:53;;;;;;;3.00;1.70;;;23.30;99.90;;;;;;5032805;28;20454;-39
2022/11/01 12:17:41;;;;;;;3.37;1.97;;;23.30;99.90;;;;;;5031608;28;20478;-42
2022/11/01 12:20:15;;;;;;;3.73;2.20;;;23.30;99.90;;;;;;5036053;28;20454;-42
2022/11/01 12:22:49;;;;;;;4.90;2.20;;;23.20;99.90;;;;;;5042029;28;20876;-40
2022/11/01 12:25:19;;;;;;;5.93;2.33;;;23.30;99.90;;;;;;5032767;28;20454;-39
2022/11/01 12:27:54;;;;;;;3.03;2.13;;;23.30;99.90;;;;;;5041034;28;20476;-41
2022/11/01 12:30:23;;;;;;;4.23;1.87;;;23.20;99.90;;;;;;5034554;28;20826;-39
2022/11/01 12:32:52;;;;;;;6.67;2.27;;;23.20;99.90;;;;;;5038034;28;20453;-39
2022/11/01 12:35:24;;;;;;;6.90;2.10;;;23.20;99.90;;;;;;5030453;28;20453;-40
2022/11/01 12:38:29;;;;;;;4.27;2.03;;;23.20;99.90;;;;;;5043834;28;20476;-36
2022/11/01 12:40:59;;;;;;;6.67;2.00;;;23.20;99.90;;;;;;4968572;28;21065;-41
2022/11/01 12:43:32;;;;;;;2.77;1.80;;;23.20;99.90;;;;;;5011700;28;20458;-36
2022/11/01 12:46:03;;;;;;;3.80;2.47;;;23.20;99.90;;;;;;5031766;28;20592;-41
2022/11/01 12:48:35;;;;;;;3.50;1.93;;;23.20;99.90;;;;;;5032574;28;20462;-37
2022/11/01 12:54:29;;;;;;;2.20;1.50;;;23.20;99.90;;;;;;5023870;28;20844;-40
2022/11/01 12:56:57;;;;;;;4.77;2.10;;;23.20;99.90;;;;;;5030782;28;21910;-41
2022/11/01 12:59:27;;;;;;;4.37;1.90;;;23.20;99.90;;;;;;5033021;28;20461;-40
2022/11/01 13:01:59;;;;;;;2.87;1.60;;;23.20;99.90;;;;;;5024438;28;20860;-38
2022/11/01 13:04:32;;;;;;;2.80;1.70;;;23.20;99.90;;;;;;5033558;28;20462;-39
2022/11/01 13:07:23;;;;;;;3.30;1.47;;;23.20;99.90;;;;;;5027106;28;21749;-39